sensor_id;sensor_type;location;lat;lon;timestamp;P1;durP1;ratioP1;P2;durP2;ratioP2
24102;SDS011;12278;53.058;9.028;2023-07-02T00:00:39;4.53;;;2.83;;
24102;SDS011;12278;53.058;9.028;2023-07-02T00:04:39;5.90;;;3.00;;
24102;SDS011;12278;53.058;9.028;2023-07-02T00:08:41;3.85;;;3.03;;
24102;SDS011;12278;53.058;9.028;2023-07-02T00:12:41;6.22;;;3.50;;
24102;SDS011;12278;53.058;9.028;2023-07-02T00:16:45;5.60;;;3.30;;
24102;SDS011;12278;53.058;9.028;2023-07-02T00:20:46;3.38;;;3.08;;
24102;SDS011;12278;53.058;9.028;2023-07-02T00:24:46;4.18;;;3.00;;
24102;SDS011;12278;53.058;9.028;2023-07-02T00:28:47;4.35;;;2.92;;
24102;SDS011;12278;53.058;9.028;2023-07-02T00:32:48;6.45;;;3.55;;
24102;SDS011;12278;53.058;9.028;2023-07-02T00:36:48;4.95;;;2.78;;
24102;SDS011;12278;53.058;9.028;2023-07-02T00:40:49;4.43;;;3.35;;
24102;SDS011;12278;53.058;9.028;2023-07-02T00:44:50;3.80;;;2.85;;
24102;SDS011;12278;53.058;9.028;2023-07-02T00:48:55;4.60;;;3.25;;
24102;SDS011;12278;53.058;9.028;2023-07-02T00:52:56;3.78;;;3.47;;
24102;SDS011;12278;53.058;9.028;2023-07-02T00:56:56;7.57;;;3.45;;
24102;SDS011;12278;53.058;9.028;2023-07-02T01:01:02;4.22;;;3.20;;
24102;SDS011;12278;53.058;9.028;2023-07-02T01:05:03;5.20;;;3.53;;
24102;SDS011;12278;53.058;9.028;2023-07-02T01:09:04;4.72;;;3.33;;
24102;SDS011;12278;53.058;9.028;2023-07-02T01:13:10;5.13;;;3.47;;
24102;SDS011;12278;53.058;9.028;2023-07-02T01:17:17;6.65;;;3.33;;
24102;SDS011;12278;53.058;9.028;2023-07-02T01:21:20;4.75;;;3.67;;
24102;SDS011;12278;53.058;9.028;2023-07-02T01:25:23;4.68;;;3.45;;
24102;SDS011;12278;53.058;9.028;2023-07-02T01:29:24;3.58;;;3.28;;
24102;SDS011;12278;53.058;9.028;2023-07-02T01:33:25;5.30;;;4.05;;
24102;SDS011;12278;53.058;9.028;2023-07-02T01:37:26;7.07;;;4.30;;
24102;SDS011;12278;53.058;9.028;2023-07-02T01:41:26;7.32;;;3.92;;
24102;SDS011;12278;53.058;9.028;2023-07-02T01:45:27;4.75;;;3.45;;
24102;SDS011;12278;53.058;9.028;2023-07-02T01:49:28;4.45;;;3.50;;
24102;SDS011;12278;53.058;9.028;2023-07-02T01:53:28;5.70;;;3.90;;
24102;SDS011;12278;53.058;9.028;2023-07-02T01:57:29;4.88;;;3.75;;
24102;SDS011;12278;53.058;9.028;2023-07-02T02:01:30;7.60;;;4.07;;
24102;SDS011;12278;53.058;9.028;2023-07-02T02:05:32;4.70;;;3.28;;
24102;SDS011;12278;53.058;9.028;2023-07-02T02:09:33;4.82;;;3.45;;
24102;SDS011;12278;53.058;9.028;2023-07-02T02:13:34;5.82;;;3.97;;
24102;SDS011;12278;53.058;9.028;2023-07-02T02:17:34;6.03;;;3.75;;
24102;SDS011;12278;53.058;9.028;2023-07-02T02:21:35;6.90;;;3.58;;
24102;SDS011;12278;53.058;9.028;2023-07-02T02:25:36;6.03;;;3.53;;
24102;SDS011;12278;53.058;9.028;2023-07-02T02:29:36;5.72;;;4.05;;
24102;SDS011;12278;53.058;9.028;2023-07-02T02:33:37;8.57;;;3.67;;
24102;SDS011;12278;53.058;9.028;2023-07-02T02:37:38;13.13;;;4.63;;
24102;SDS011;12278;53.058;9.028;2023-07-02T02:41:39;10.93;;;4.65;;
24102;SDS011;12278;53.058;9.028;2023-07-02T02:45:40;7.45;;;4.25;;
24102;SDS011;12278;53.058;9.028;2023-07-02T02:49:41;10.00;;;3.67;;
24102;SDS011;12278;53.058;9.028;2023-07-02T02:53:41;6.75;;;4.10;;
24102;SDS011;12278;53.058;9.028;2023-07-02T02:57:42;5.95;;;3.78;;
24102;SDS011;12278;53.058;9.028;2023-07-02T03:01:43;8.00;;;4.03;;
24102;SDS011;12278;53.058;9.028;2023-07-02T03:05:43;9.48;;;4.20;;
24102;SDS011;12278;53.058;9.028;2023-07-02T03:09:48;9.48;;;4.32;;
24102;SDS011;12278;53.058;9.028;2023-07-02T03:13:49;7.10;;;4.53;;
24102;SDS011;12278;53.058;9.028;2023-07-02T03:17:50;7.20;;;4.03;;
24102;SDS011;12278;53.058;9.028;2023-07-02T03:21:50;8.73;;;5.00;;
24102;SDS011;12278;53.058;9.028;2023-07-02T03:25:51;6.45;;;4.88;;
24102;SDS011;12278;53.058;9.028;2023-07-02T03:29:51;10.95;;;4.63;;
24102;SDS011;12278;53.058;9.028;2023-07-02T03:33:52;7.88;;;4.65;;
24102;SDS011;12278;53.058;9.028;2023-07-02T03:37:53;9.00;;;4.60;;
24102;SDS011;12278;53.058;9.028;2023-07-02T03:41:53;9.25;;;4.20;;
24102;SDS011;12278;53.058;9.028;2023-07-02T03:45:54;8.57;;;4.65;;
24102;SDS011;12278;53.058;9.028;2023-07-02T03:49:54;7.78;;;4.65;;
24102;SDS011;12278;53.058;9.028;2023-07-02T03:53:55;9.90;;;4.20;;
24102;SDS011;12278;53.058;9.028;2023-07-02T03:57:56;8.38;;;4.80;;
24102;SDS011;12278;53.058;9.028;2023-07-02T04:01:56;10.02;;;6.10;;
24102;SDS011;12278;53.058;9.028;2023-07-02T04:05:57;10.95;;;4.95;;
24102;SDS011;12278;53.058;9.028;2023-07-02T04:09:58;10.30;;;5.57;;
24102;SDS011;12278;53.058;9.028;2023-07-02T04:13:59;10.68;;;5.40;;
24102;SDS011;12278;53.058;9.028;2023-07-02T04:17:59;8.20;;;4.55;;
24102;SDS011;12278;53.058;9.028;2023-07-02T04:22:00;9.23;;;4.93;;
24102;SDS011;12278;53.058;9.028;2023-07-02T04:26:02;11.77;;;4.80;;
24102;SDS011;12278;53.058;9.028;2023-07-02T04:30:03;8.13;;;5.28;;
24102;SDS011;12278;53.058;9.028;2023-07-02T04:34:06;9.73;;;5.55;;
24102;SDS011;12278;53.058;9.028;2023-07-02T04:38:06;8.50;;;5.35;;
24102;SDS011;12278;53.058;9.028;2023-07-02T04:42:07;11.18;;;4.97;;
24102;SDS011;12278;53.058;9.028;2023-07-02T04:46:09;6.80;;;4.65;;
24102;SDS011;12278;53.058;9.028;2023-07-02T04:50:12;6.97;;;4.72;;
24102;SDS011;12278;53.058;9.028;2023-07-02T04:54:13;11.30;;;5.15;;
24102;SDS011;12278;53.058;9.028;2023-07-02T04:58:13;16.45;;;5.50;;
24102;SDS011;12278;53.058;9.028;2023-07-02T05:02:14;10.90;;;4.97;;
24102;SDS011;12278;53.058;9.028;2023-07-02T05:06:15;13.52;;;5.55;;
24102;SDS011;12278;53.058;9.028;2023-07-02T05:10:15;13.35;;;5.78;;
24102;SDS011;12278;53.058;9.028;2023-07-02T05:14:16;15.20;;;6.45;;
24102;SDS011;12278;53.058;9.028;2023-07-02T05:18:17;14.93;;;5.80;;
24102;SDS011;12278;53.058;9.028;2023-07-02T05:22:18;13.60;;;5.82;;
24102;SDS011;12278;53.058;9.028;2023-07-02T05:26:21;17.35;;;6.07;;
24102;SDS011;12278;53.058;9.028;2023-07-02T05:30:22;14.70;;;6.28;;
24102;SDS011;12278;53.058;9.028;2023-07-02T05:34:22;20.15;;;6.40;;
24102;SDS011;12278;53.058;9.028;2023-07-02T05:38:23;18.35;;;6.55;;
24102;SDS011;12278;53.058;9.028;2023-07-02T05:42:24;16.40;;;6.07;;
24102;SDS011;12278;53.058;9.028;2023-07-02T05:46:25;10.98;;;5.13;;
24102;SDS011;12278;53.058;9.028;2023-07-02T05:50:26;15.88;;;6.25;;
24102;SDS011;12278;53.058;9.028;2023-07-02T05:54:26;13.68;;;6.60;;
24102;SDS011;12278;53.058;9.028;2023-07-02T05:58:27;17.13;;;6.93;;
24102;SDS011;12278;53.058;9.028;2023-07-02T06:02:29;14.80;;;6.75;;
24102;SDS011;12278;53.058;9.028;2023-07-02T06:06:31;14.00;;;6.88;;
24102;SDS011;12278;53.058;9.028;2023-07-02T06:10:33;17.40;;;6.68;;
24102;SDS011;12278;53.058;9.028;2023-07-02T06:14:34;18.50;;;6.85;;
24102;SDS011;12278;53.058;9.028;2023-07-02T06:18:35;21.52;;;6.97;;
24102;SDS011;12278;53.058;9.028;2023-07-02T06:22:35;16.35;;;6.25;;
24102;SDS011;12278;53.058;9.028;2023-07-02T06:26:36;13.20;;;6.53;;
24102;SDS011;12278;53.058;9.028;2023-07-02T06:30:37;14.85;;;5.95;;
24102;SDS011;12278;53.058;9.028;2023-07-02T06:34:37;15.93;;;7.00;;
24102;SDS011;12278;53.058;9.028;2023-07-02T06:38:38;13.48;;;6.72;;
24102;SDS011;12278;53.058;9.028;2023-07-02T06:42:39;17.73;;;7.60;;
24102;SDS011;12278;53.058;9.028;2023-07-02T06:46:40;15.73;;;6.38;;
24102;SDS011;12278;53.058;9.028;2023-07-02T06:50:43;10.18;;;6.38;;
24102;SDS011;12278;53.058;9.028;2023-07-02T06:54:45;12.55;;;6.22;;
24102;SDS011;12278;53.058;9.028;2023-07-02T06:58:45;15.90;;;6.72;;
24102;SDS011;12278;53.058;9.028;2023-07-02T07:02:47;12.63;;;4.95;;
24102;SDS011;12278;53.058;9.028;2023-07-02T07:06:48;19.70;;;6.60;;
24102;SDS011;12278;53.058;9.028;2023-07-02T07:10:49;18.63;;;6.18;;
24102;SDS011;12278;53.058;9.028;2023-07-02T07:14:50;16.00;;;6.15;;
24102;SDS011;12278;53.058;9.028;2023-07-02T07:19:00;9.80;;;6.55;;
24102;SDS011;12278;53.058;9.028;2023-07-02T07:23:02;16.77;;;6.00;;
24102;SDS011;12278;53.058;9.028;2023-07-02T07:27:03;13.77;;;5.72;;
24102;SDS011;12278;53.058;9.028;2023-07-02T07:31:04;17.02;;;6.40;;
24102;SDS011;12278;53.058;9.028;2023-07-02T07:35:05;12.18;;;5.68;;
24102;SDS011;12278;53.058;9.028;2023-07-02T07:39:06;16.63;;;6.43;;
24102;SDS011;12278;53.058;9.028;2023-07-02T07:43:07;10.55;;;5.10;;
24102;SDS011;12278;53.058;9.028;2023-07-02T07:47:10;11.15;;;6.05;;
24102;SDS011;12278;53.058;9.028;2023-07-02T07:51:11;13.82;;;6.43;;
24102;SDS011;12278;53.058;9.028;2023-07-02T07:55:12;14.10;;;5.35;;
24102;SDS011;12278;53.058;9.028;2023-07-02T07:59:13;9.85;;;5.38;;
24102;SDS011;12278;53.058;9.028;2023-07-02T08:03:14;9.57;;;4.88;;
24102;SDS011;12278;53.058;9.028;2023-07-02T08:07:15;9.10;;;5.15;;
24102;SDS011;12278;53.058;9.028;2023-07-02T08:11:16;13.93;;;5.72;;
24102;SDS011;12278;53.058;9.028;2023-07-02T08:15:16;16.15;;;5.40;;
24102;SDS011;12278;53.058;9.028;2023-07-02T08:19:17;12.68;;;6.13;;
24102;SDS011;12278;53.058;9.028;2023-07-02T08:23:19;10.40;;;5.47;;
24102;SDS011;12278;53.058;9.028;2023-07-02T08:27:20;9.07;;;4.78;;
24102;SDS011;12278;53.058;9.028;2023-07-02T08:31:21;9.82;;;4.95;;
24102;SDS011;12278;53.058;9.028;2023-07-02T08:35:21;11.50;;;4.70;;
24102;SDS011;12278;53.058;9.028;2023-07-02T08:39:23;9.25;;;4.72;;
24102;SDS011;12278;53.058;9.028;2023-07-02T08:43:24;11.45;;;5.03;;
24102;SDS011;12278;53.058;9.028;2023-07-02T08:47:27;8.52;;;3.97;;
24102;SDS011;12278;53.058;9.028;2023-07-02T08:51:28;8.00;;;4.22;;
24102;SDS011;12278;53.058;9.028;2023-07-02T08:55:29;11.00;;;4.75;;
24102;SDS011;12278;53.058;9.028;2023-07-02T08:59:30;10.27;;;4.30;;
24102;SDS011;12278;53.058;9.028;2023-07-02T09:03:31;9.07;;;3.95;;
24102;SDS011;12278;53.058;9.028;2023-07-02T09:07:42;5.93;;;3.85;;
24102;SDS011;12278;53.058;9.028;2023-07-02T09:11:47;11.38;;;5.38;;
24102;SDS011;12278;53.058;9.028;2023-07-02T09:15:51;10.45;;;4.63;;
24102;SDS011;12278;53.058;9.028;2023-07-02T09:19:51;8.13;;;4.50;;
24102;SDS011;12278;53.058;9.028;2023-07-02T09:23:53;8.60;;;4.65;;
24102;SDS011;12278;53.058;9.028;2023-07-02T09:27:55;12.65;;;4.80;;
24102;SDS011;12278;53.058;9.028;2023-07-02T09:31:58;13.20;;;5.30;;
24102;SDS011;12278;53.058;9.028;2023-07-02T09:36:00;9.45;;;5.00;;
24102;SDS011;12278;53.058;9.028;2023-07-02T09:40:01;8.80;;;4.53;;
24102;SDS011;12278;53.058;9.028;2023-07-02T09:44:05;8.68;;;4.95;;
24102;SDS011;12278;53.058;9.028;2023-07-02T09:48:13;10.05;;;4.95;;
24102;SDS011;12278;53.058;9.028;2023-07-02T09:52:17;11.00;;;5.53;;
24102;SDS011;12278;53.058;9.028;2023-07-02T09:56:19;10.95;;;4.90;;
24102;SDS011;12278;53.058;9.028;2023-07-02T10:00:21;10.77;;;4.75;;
24102;SDS011;12278;53.058;9.028;2023-07-02T10:04:22;11.52;;;4.97;;
24102;SDS011;12278;53.058;9.028;2023-07-02T10:08:26;14.80;;;4.90;;
24102;SDS011;12278;53.058;9.028;2023-07-02T10:12:30;8.48;;;5.00;;
24102;SDS011;12278;53.058;9.028;2023-07-02T10:16:31;12.68;;;5.10;;
24102;SDS011;12278;53.058;9.028;2023-07-02T10:20:33;9.38;;;5.20;;
24102;SDS011;12278;53.058;9.028;2023-07-02T10:24:50;11.60;;;5.13;;
24102;SDS011;12278;53.058;9.028;2023-07-02T10:29:00;8.80;;;4.55;;
24102;SDS011;12278;53.058;9.028;2023-07-02T10:33:14;8.60;;;4.28;;
24102;SDS011;12278;53.058;9.028;2023-07-02T10:37:17;8.60;;;4.35;;
24102;SDS011;12278;53.058;9.028;2023-07-02T10:41:25;8.90;;;3.88;;
24102;SDS011;12278;53.058;9.028;2023-07-02T10:49:35;9.18;;;4.35;;
24102;SDS011;12278;53.058;9.028;2023-07-02T10:53:36;13.43;;;4.03;;
24102;SDS011;12278;53.058;9.028;2023-07-02T10:57:36;5.43;;;2.83;;
24102;SDS011;12278;53.058;9.028;2023-07-02T11:01:37;5.47;;;3.28;;
24102;SDS011;12278;53.058;9.028;2023-07-02T11:05:37;6.22;;;3.38;;
24102;SDS011;12278;53.058;9.028;2023-07-02T11:09:38;7.30;;;3.03;;
24102;SDS011;12278;53.058;9.028;2023-07-02T11:13:45;6.53;;;3.83;;
24102;SDS011;12278;53.058;9.028;2023-07-02T11:17:49;6.90;;;4.45;;
24102;SDS011;12278;53.058;9.028;2023-07-02T11:21:50;7.63;;;3.80;;
24102;SDS011;12278;53.058;9.028;2023-07-02T11:26:00;8.27;;;4.00;;
24102;SDS011;12278;53.058;9.028;2023-07-02T11:30:02;6.32;;;2.75;;
24102;SDS011;12278;53.058;9.028;2023-07-02T11:34:16;9.77;;;3.83;;
24102;SDS011;12278;53.058;9.028;2023-07-02T11:38:18;5.90;;;2.80;;
24102;SDS011;12278;53.058;9.028;2023-07-02T11:42:18;7.68;;;3.15;;
24102;SDS011;12278;53.058;9.028;2023-07-02T11:46:21;3.88;;;2.53;;
24102;SDS011;12278;53.058;9.028;2023-07-02T11:50:22;2.85;;;2.10;;
24102;SDS011;12278;53.058;9.028;2023-07-02T11:54:23;8.30;;;3.50;;
24102;SDS011;12278;53.058;9.028;2023-07-02T11:58:23;3.65;;;2.10;;
24102;SDS011;12278;53.058;9.028;2023-07-02T12:02:24;8.35;;;2.75;;
24102;SDS011;12278;53.058;9.028;2023-07-02T12:06:25;4.10;;;2.55;;
24102;SDS011;12278;53.058;9.028;2023-07-02T12:10:28;4.97;;;2.38;;
24102;SDS011;12278;53.058;9.028;2023-07-02T12:14:29;4.07;;;2.40;;
24102;SDS011;12278;53.058;9.028;2023-07-02T12:18:29;5.20;;;2.40;;
24102;SDS011;12278;53.058;9.028;2023-07-02T12:22:30;4.70;;;2.50;;
24102;SDS011;12278;53.058;9.028;2023-07-02T12:26:31;8.15;;;2.67;;
24102;SDS011;12278;53.058;9.028;2023-07-02T12:30:31;4.03;;;2.70;;
24102;SDS011;12278;53.058;9.028;2023-07-02T12:34:32;6.72;;;2.50;;
24102;SDS011;12278;53.058;9.028;2023-07-02T12:38:34;8.77;;;3.35;;
24102;SDS011;12278;53.058;9.028;2023-07-02T12:42:35;3.55;;;2.17;;
24102;SDS011;12278;53.058;9.028;2023-07-02T12:46:45;7.88;;;3.00;;
24102;SDS011;12278;53.058;9.028;2023-07-02T12:50:59;3.25;;;2.38;;
24102;SDS011;12278;53.058;9.028;2023-07-02T12:55:00;7.20;;;2.42;;
24102;SDS011;12278;53.058;9.028;2023-07-02T12:59:02;9.63;;;3.13;;
24102;SDS011;12278;53.058;9.028;2023-07-02T13:03:02;6.18;;;3.08;;
24102;SDS011;12278;53.058;9.028;2023-07-02T13:07:03;4.88;;;2.95;;
24102;SDS011;12278;53.058;9.028;2023-07-02T13:11:06;7.65;;;2.65;;
24102;SDS011;12278;53.058;9.028;2023-07-02T13:15:07;4.68;;;3.40;;
24102;SDS011;12278;53.058;9.028;2023-07-02T13:19:09;8.38;;;3.17;;
24102;SDS011;12278;53.058;9.028;2023-07-02T13:23:09;5.95;;;2.65;;
24102;SDS011;12278;53.058;9.028;2023-07-02T13:27:12;6.30;;;2.90;;
24102;SDS011;12278;53.058;9.028;2023-07-02T13:31:15;7.45;;;2.90;;
24102;SDS011;12278;53.058;9.028;2023-07-02T13:35:15;6.10;;;3.15;;
24102;SDS011;12278;53.058;9.028;2023-07-02T13:39:16;4.05;;;2.25;;
24102;SDS011;12278;53.058;9.028;2023-07-02T13:43:17;4.00;;;2.83;;
24102;SDS011;12278;53.058;9.028;2023-07-02T13:47:17;3.20;;;2.75;;
24102;SDS011;12278;53.058;9.028;2023-07-02T13:51:21;6.18;;;3.08;;
24102;SDS011;12278;53.058;9.028;2023-07-02T13:55:22;6.25;;;2.78;;
24102;SDS011;12278;53.058;9.028;2023-07-02T13:59:27;3.42;;;2.70;;
24102;SDS011;12278;53.058;9.028;2023-07-02T14:07:32;6.53;;;2.45;;
24102;SDS011;12278;53.058;9.028;2023-07-02T14:11:34;6.32;;;2.83;;
24102;SDS011;12278;53.058;9.028;2023-07-02T14:15:36;3.92;;;2.67;;
24102;SDS011;12278;53.058;9.028;2023-07-02T14:19:36;6.65;;;3.15;;
24102;SDS011;12278;53.058;9.028;2023-07-02T14:23:38;7.28;;;3.10;;
24102;SDS011;12278;53.058;9.028;2023-07-02T14:27:39;7.07;;;3.10;;
24102;SDS011;12278;53.058;9.028;2023-07-02T14:31:39;6.93;;;2.58;;
24102;SDS011;12278;53.058;9.028;2023-07-02T14:35:40;6.47;;;3.55;;
24102;SDS011;12278;53.058;9.028;2023-07-02T14:39:41;9.38;;;3.10;;
24102;SDS011;12278;53.058;9.028;2023-07-02T14:43:42;9.05;;;2.80;;
24102;SDS011;12278;53.058;9.028;2023-07-02T14:47:43;6.88;;;2.85;;
24102;SDS011;12278;53.058;9.028;2023-07-02T14:51:43;4.13;;;2.25;;
24102;SDS011;12278;53.058;9.028;2023-07-02T14:55:45;4.40;;;3.65;;
24102;SDS011;12278;53.058;9.028;2023-07-02T14:59:46;4.85;;;3.05;;
24102;SDS011;12278;53.058;9.028;2023-07-02T15:03:47;7.50;;;3.30;;
24102;SDS011;12278;53.058;9.028;2023-07-02T15:07:48;5.28;;;3.00;;
24102;SDS011;12278;53.058;9.028;2023-07-02T15:11:49;5.40;;;3.13;;
24102;SDS011;12278;53.058;9.028;2023-07-02T15:15:49;4.93;;;3.10;;
24102;SDS011;12278;53.058;9.028;2023-07-02T15:19:50;4.40;;;2.70;;
24102;SDS011;12278;53.058;9.028;2023-07-02T15:23:50;6.68;;;3.03;;
24102;SDS011;12278;53.058;9.028;2023-07-02T15:27:51;8.05;;;2.75;;
24102;SDS011;12278;53.058;9.028;2023-07-02T15:31:52;4.10;;;2.42;;
24102;SDS011;12278;53.058;9.028;2023-07-02T15:35:53;5.50;;;3.30;;
24102;SDS011;12278;53.058;9.028;2023-07-02T15:39:54;4.45;;;2.50;;
24102;SDS011;12278;53.058;9.028;2023-07-02T15:43:54;4.18;;;2.63;;
24102;SDS011;12278;53.058;9.028;2023-07-02T15:47:55;5.45;;;2.70;;
24102;SDS011;12278;53.058;9.028;2023-07-02T15:56:02;4.55;;;2.58;;
24102;SDS011;12278;53.058;9.028;2023-07-02T16:00:03;5.10;;;2.53;;
24102;SDS011;12278;53.058;9.028;2023-07-02T16:04:04;6.32;;;3.00;;
24102;SDS011;12278;53.058;9.028;2023-07-02T16:08:08;7.35;;;2.75;;
24102;SDS011;12278;53.058;9.028;2023-07-02T16:12:08;4.05;;;2.53;;
24102;SDS011;12278;53.058;9.028;2023-07-02T16:16:09;6.15;;;2.60;;
24102;SDS011;12278;53.058;9.028;2023-07-02T16:20:10;4.13;;;2.47;;
24102;SDS011;12278;53.058;9.028;2023-07-02T16:24:19;5.47;;;3.13;;
24102;SDS011;12278;53.058;9.028;2023-07-02T16:28:20;8.35;;;3.08;;
24102;SDS011;12278;53.058;9.028;2023-07-02T16:32:21;8.98;;;3.00;;
24102;SDS011;12278;53.058;9.028;2023-07-02T16:44:26;10.70;;;3.17;;
24102;SDS011;12278;53.058;9.028;2023-07-02T16:48:28;7.33;;;3.20;;
24102;SDS011;12278;53.058;9.028;2023-07-02T16:56:29;8.77;;;3.83;;
24102;SDS011;12278;53.058;9.028;2023-07-02T17:00:30;4.90;;;2.90;;
24102;SDS011;12278;53.058;9.028;2023-07-02T17:20:35;5.53;;;3.05;;
24102;SDS011;12278;53.058;9.028;2023-07-02T17:24:40;6.30;;;2.92;;
24102;SDS011;12278;53.058;9.028;2023-07-02T17:28:42;8.18;;;4.10;;
24102;SDS011;12278;53.058;9.028;2023-07-02T17:32:43;7.10;;;3.33;;
24102;SDS011;12278;53.058;9.028;2023-07-02T17:36:44;10.60;;;3.72;;
24102;SDS011;12278;53.058;9.028;2023-07-02T17:40:53;6.13;;;3.10;;
24102;SDS011;12278;53.058;9.028;2023-07-02T17:44:54;5.50;;;3.60;;
24102;SDS011;12278;53.058;9.028;2023-07-02T17:48:59;10.15;;;3.92;;
24102;SDS011;12278;53.058;9.028;2023-07-02T17:53:00;6.15;;;3.42;;
24102;SDS011;12278;53.058;9.028;2023-07-02T17:57:00;5.95;;;3.53;;
24102;SDS011;12278;53.058;9.028;2023-07-02T18:01:01;7.38;;;3.95;;
24102;SDS011;12278;53.058;9.028;2023-07-02T18:09:06;7.72;;;3.30;;
24102;SDS011;12278;53.058;9.028;2023-07-02T18:13:07;4.85;;;3.47;;
24102;SDS011;12278;53.058;9.028;2023-07-02T18:17:09;10.77;;;4.45;;
24102;SDS011;12278;53.058;9.028;2023-07-02T18:21:15;7.32;;;3.63;;
24102;SDS011;12278;53.058;9.028;2023-07-02T18:25:16;7.45;;;3.67;;
24102;SDS011;12278;53.058;9.028;2023-07-02T18:29:17;8.70;;;4.25;;
24102;SDS011;12278;53.058;9.028;2023-07-02T18:33:18;5.35;;;3.25;;
24102;SDS011;12278;53.058;9.028;2023-07-02T18:37:19;6.55;;;3.45;;
24102;SDS011;12278;53.058;9.028;2023-07-02T18:41:24;6.63;;;3.50;;
24102;SDS011;12278;53.058;9.028;2023-07-02T18:45:25;7.18;;;2.90;;
24102;SDS011;12278;53.058;9.028;2023-07-02T18:49:26;6.13;;;2.78;;
24102;SDS011;12278;53.058;9.028;2023-07-02T18:53:34;6.75;;;3.50;;
24102;SDS011;12278;53.058;9.028;2023-07-02T18:57:35;6.82;;;3.78;;
24102;SDS011;12278;53.058;9.028;2023-07-02T19:01:36;8.10;;;3.83;;
24102;SDS011;12278;53.058;9.028;2023-07-02T19:05:37;6.68;;;3.50;;
